LFRKLFRO

Guest
Details From LFRK - Caen Carpiquet
To LFRO - Lannion
Flight Number -
Tags generated
Created
Modified
Stats Distance 122 nm / 225 km
Max Altitude 10,300 ft / 3,139 m
Waypoints 3
Social Downloads 0
Likes 0
Share VATSIM

Download

Looking for another format? Having issues loading an existing format? Contact us
Advertisement - Login to hide

Notes

Basic altitude profile: - Ascent Rate: 2500ft/min - Ascent Speed: 250kts - Cruise Altitude: 35000ft - Cruise Speed: 420kts - Descent Rate: 1500ft/min - Descent Speed: 250kts

Route

LFRK SENLO LFRO

ID Type Via Altitude Latitude Longitude Leg Dist Tot Dist Heading (true) Name
O LFRK APT - 0 ft / 0 m 49.17512˚ -0.45194˚ - 0 nm - Caen Carpiquet
SENLO FIX - 10,300 ft / 3,139 m 49.08333˚ -1.17833˚ 29 nm 29 nm 259° / 259° -
O LFRO APT - 0 ft / 0 m 48.75431˚ -3.47175˚ 92 nm 121 nm 259° / 257° Lannion

Altitude Profile

Advertisement - Login to hide

LFRK

Details ICAO LFRK (CFR)
Name Caen Carpiquet
Region France
Timezone Europe/Paris (UTC+1.0)
Stats Elevation 256 ft / 78 m (AMSL)
Location 49.175122° -0.451941°
Runways 2
Magnetic Variation 0.321° W

METAR

LFRK 150300Z AUTO 27012KT CAVOK 05/02 Q0996

Decode

TAF

Not found

Departure Runways

ID Width Length Bearing (true) Bearing (mag) Surface Threshold Offset Overrun Length
06 98 ft / 30 m 3,880 ft / 1,183 m 51.68° 52.00° Asphalt 0 ft / 0 m 0 ft / 0 m
13 148 ft / 45 m 6,215 ft / 1,894 m 125.34° 125.66° Asphalt 984 ft / 300 m 0 ft / 0 m
24 98 ft / 30 m 3,880 ft / 1,183 m 231.69° 232.01° Asphalt 0 ft / 0 m 0 ft / 0 m
31 148 ft / 45 m 6,215 ft / 1,894 m 305.36° 305.68° Asphalt 0 ft / 0 m 0 ft / 0 m

LFRO

Details ICAO LFRO (LAI)
Name Lannion
Region France
Timezone Europe/Paris (UTC+1.0)
Stats Elevation 291 ft / 89 m (AMSL)
Location 48.754309° -3.471747°
Runways 1
Magnetic Variation 1.286° W

METAR

LFRO 150300Z AUTO 28017KT 9999 BKN031 BKN039 OVC048 08/03 Q0999

Decode

TAF

TAF TAF LFRO 142044Z 1420/1518 CNL

Decode

Destination Runways

ID Width Length Bearing (true) Bearing (mag) Surface Threshold Offset Overrun Length
11 148 ft / 45 m 5,547 ft / 1,691 m 107.61° 108.90° Asphalt 755 ft / 230 m 0 ft / 0 m
29 148 ft / 45 m 5,547 ft / 1,691 m 287.62° 288.91° Asphalt 591 ft / 180 m 0 ft / 0 m

Approach Navaids

Runway Type Ident Frequency Range Bearing (true) Bearing (mag) Slope Elevation
11 Glidescope LN 109.50 MHz 10 nm / 19 km 107.61° 108.90° 3.00° 292 ft / 89 m (AMSL)
29 Localiser LN 110.35 MHz 18 nm / 33 km 287.64° 288.92° - 291 ft / 89 m (AMSL)
29 Glidescope LN 110.35 MHz 10 nm / 19 km 287.61° 288.90° 3.00° 291 ft / 89 m (AMSL)
29 DME LN 110.35 MHz 18 nm / 33 km - - - 291 ft / 89 m (AMSL)